Sierra Blanca Regional Airport
KSRR : now visible

Airfield :











YOU CAN JOIN US ON...

 
LOGIN :

Register | Disclaimer

   EN    FR    IT 

 









Legend :    VFR   Marginal VFR   IFR   Intensive IFR   Very Intensive IFR
Visi :
Ceiling :
>= 8 km
>= 3000ft
5 to 8 km
1000 to 3000 ft
1500m to 5 km
500 to 1000 ft
800 to 1500m
200 to 500 ft
< 800m
< 200 ft
Symbols :   Thunderstorms  Fog  Heavy snow  Heavy precipitations  Wind > 20 kt






- Airport Elevation : 6814 ft


KSRR - Sierra Blanca Regional

CURRENT METAR :
  • 241455Z AUTO 17003KT 10SM CLR 16/05 A3029 RMK AO2

EXPIRED METARs :
  • 241435Z AUTO 18003KT 10SM BKN120 15/05 A3029 RMK AO2
  • 241415Z AUTO 00000KT 10SM OVC120 16/05 A3028 RMK AO2
  • 241355Z AUTO 20003KT 10SM OVC120 14/05 A3027 RMK AO2
  • 241335Z AUTO 20006KT 10SM FEW075 FEW080 BKN120 14/04 A3027 RMK AO2
  • 241315Z AUTO 31004KT 10SM SCT070 BKN085 OVC100 15/04 A3026 RMK AO2
  • 241255Z AUTO 33003KT 10SM BKN100 BKN120 15/04 A3026 RMK AO2
  • 241235Z AUTO 29008KT 10SM BKN120 15/04 A3026 RMK AO2
  • 241215Z AUTO 22006KT 10SM SCT100 BKN120 15/04 A3026 RMK AO2

TAF N/A
KZAB FIR / North America



MET'MAP, your aeronautical weather chart ! - Copyright ORBIFLY December 2007 - Disclaimer

ORBIFLY MET'MAP TEAM :

Programming & Development : Alexandra Zaïnal
Concept & original design : Baudouin d'Aumeries
Assistance for programming : Marc-Olivier Méhu
Technical & hardware support : Manuel Goepfert

Contact : metmap@orbifly.com




SOURCES & CREDITS :

   NOAA       Earth
Advisory